sensor_id;sensor_type;location;lat;lon;timestamp;pressure;altitude;pressure_sealevel;temperature;humidity
29239;BME280;16267;48.194;11.546;2023-04-23T00:01:05;95410.94;;;16.07;57.06
29239;BME280;16267;48.194;11.546;2023-04-23T00:03:34;95410.19;;;16.06;57.25
29239;BME280;16267;48.194;11.546;2023-04-23T00:06:05;95414.53;;;16.04;57.02
29239;BME280;16267;48.194;11.546;2023-04-23T00:08:32;95410.34;;;16.03;57.55
29239;BME280;16267;48.194;11.546;2023-04-23T00:10:58;95404.59;;;16.01;57.25
29239;BME280;16267;48.194;11.546;2023-04-23T00:13:25;95416.66;;;16.00;57.24
29239;BME280;16267;48.194;11.546;2023-04-23T00:15:51;95405.50;;;15.98;57.36
29239;BME280;16267;48.194;11.546;2023-04-23T00:18:17;95410.19;;;15.97;57.19
29239;BME280;16267;48.194;11.546;2023-04-23T00:20:42;95405.97;;;15.96;57.41
29239;BME280;16267;48.194;11.546;2023-04-23T00:23:08;95403.69;;;15.95;57.59
29239;BME280;16267;48.194;11.546;2023-04-23T00:25:34;95400.69;;;15.93;57.63
29239;BME280;16267;48.194;11.546;2023-04-23T00:28:00;95396.47;;;15.92;57.61
29239;BME280;16267;48.194;11.546;2023-04-23T00:30:26;95396.91;;;15.90;57.72
29239;BME280;16267;48.194;11.546;2023-04-23T00:32:51;95391.22;;;15.88;57.63
29239;BME280;16267;48.194;11.546;2023-04-23T00:35:17;95387.00;;;15.87;57.66
29239;BME280;16267;48.194;11.546;2023-04-23T00:37:43;95390.16;;;15.86;57.57
29239;BME280;16267;48.194;11.546;2023-04-23T00:40:09;95384.44;;;15.83;57.83
29239;BME280;16267;48.194;11.546;2023-04-23T00:42:37;95382.19;;;15.82;57.72
29239;BME280;16267;48.194;11.546;2023-04-23T00:45:06;95382.63;;;15.80;57.81
29239;BME280;16267;48.194;11.546;2023-04-23T00:47:34;95383.06;;;15.79;58.08
29239;BME280;16267;48.194;11.546;2023-04-23T00:50:00;95381.56;;;15.78;58.07
29239;BME280;16267;48.194;11.546;2023-04-23T00:52:26;95386.25;;;15.77;58.31
29239;BME280;16267;48.194;11.546;2023-04-23T00:54:54;95377.81;;;15.75;58.36
29239;BME280;16267;48.194;11.546;2023-04-23T00:57:21;95383.22;;;15.75;58.58
29239;BME280;16267;48.194;11.546;2023-04-23T00:59:48;95379.03;;;15.74;58.58
29239;BME280;16267;48.194;11.546;2023-04-23T01:02:14;95372.56;;;15.72;58.91
29239;BME280;16267;48.194;11.546;2023-04-23T01:04:42;95388.47;;;15.70;59.17
29239;BME280;16267;48.194;11.546;2023-04-23T01:07:10;95384.69;;;15.67;59.33
29239;BME280;16267;48.194;11.546;2023-04-23T01:09:38;95372.06;;;15.64;59.78
29239;BME280;16267;48.194;11.546;2023-04-23T01:12:09;95381.06;;;15.61;60.59
29239;BME280;16267;48.194;11.546;2023-04-23T01:14:38;95380.75;;;15.59;60.97
29239;BME280;16267;48.194;11.546;2023-04-23T01:17:04;95385.09;;;15.56;61.22
29239;BME280;16267;48.194;11.546;2023-04-23T01:19:30;95382.09;;;15.54;61.52
29239;BME280;16267;48.194;11.546;2023-04-23T01:21:56;95381.81;;;15.52;61.89
29239;BME280;16267;48.194;11.546;2023-04-23T01:24:27;95378.47;;;15.48;62.36
29239;BME280;16267;48.194;11.546;2023-04-23T01:26:54;95375.44;;;15.46;62.19
29239;BME280;16267;48.194;11.546;2023-04-23T01:29:20;95377.88;;;15.44;61.86
29239;BME280;16267;48.194;11.546;2023-04-23T01:31:47;95369.44;;;15.42;61.59
29239;BME280;16267;48.194;11.546;2023-04-23T01:34:14;95366.44;;;15.40;61.25
29239;BME280;16267;48.194;11.546;2023-04-23T01:36:40;95368.38;;;15.39;61.21
29239;BME280;16267;48.194;11.546;2023-04-23T01:39:07;95371.53;;;15.38;61.38
29239;BME280;16267;48.194;11.546;2023-04-23T01:41:34;95372.72;;;15.37;61.30
29239;BME280;16267;48.194;11.546;2023-04-23T01:44:00;95370.03;;;15.37;61.39
29239;BME280;16267;48.194;11.546;2023-04-23T01:46:27;95376.63;;;15.36;62.08
29239;BME280;16267;48.194;11.546;2023-04-23T01:48:53;95375.13;;;15.35;61.90
29239;BME280;16267;48.194;11.546;2023-04-23T01:51:19;95372.13;;;15.33;61.89
29239;BME280;16267;48.194;11.546;2023-04-23T01:53:45;95374.38;;;15.34;62.28
29239;BME280;16267;48.194;11.546;2023-04-23T01:56:10;95374.06;;;15.32;62.52
29239;BME280;16267;48.194;11.546;2023-04-23T01:58:37;95377.97;;;15.31;62.89
29239;BME280;16267;48.194;11.546;2023-04-23T02:01:03;95375.25;;;15.31;62.97
29239;BME280;16267;48.194;11.546;2023-04-23T02:03:30;95363.38;;;15.29;63.36
29239;BME280;16267;48.194;11.546;2023-04-23T02:05:59;95373.44;;;15.28;65.00
29239;BME280;16267;48.194;11.546;2023-04-23T02:08:27;95378.53;;;15.26;65.19
29239;BME280;16267;48.194;11.546;2023-04-23T02:10:52;95375.97;;;15.23;66.28
29239;BME280;16267;48.194;11.546;2023-04-23T02:13:19;95386.47;;;15.21;67.10
29239;BME280;16267;48.194;11.546;2023-04-23T02:15:45;95385.72;;;15.20;66.37
29239;BME280;16267;48.194;11.546;2023-04-23T02:18:11;95383.94;;;15.17;65.61
29239;BME280;16267;48.194;11.546;2023-04-23T02:20:37;95388.59;;;15.16;65.79
29239;BME280;16267;48.194;11.546;2023-04-23T02:23:06;95382.44;;;15.16;65.72
29239;BME280;16267;48.194;11.546;2023-04-23T02:25:32;95389.00;;;15.15;65.49
29239;BME280;16267;48.194;11.546;2023-04-23T02:27:58;95384.81;;;15.14;65.38
29239;BME280;16267;48.194;11.546;2023-04-23T02:30:26;95391.41;;;15.13;66.48
29239;BME280;16267;48.194;11.546;2023-04-23T02:32:52;95381.78;;;15.12;67.33
29239;BME280;16267;48.194;11.546;2023-04-23T02:35:18;95379.97;;;15.09;67.68
29239;BME280;16267;48.194;11.546;2023-04-23T02:37:44;95384.63;;;15.08;68.22
29239;BME280;16267;48.194;11.546;2023-04-23T02:40:10;95383.56;;;15.06;68.74
29239;BME280;16267;48.194;11.546;2023-04-23T02:42:36;95381.00;;;15.02;68.75
29239;BME280;16267;48.194;11.546;2023-04-23T02:45:02;95384.16;;;15.01;68.03
29239;BME280;16267;48.194;11.546;2023-04-23T02:47:28;95381.13;;;14.99;67.87
29239;BME280;16267;48.194;11.546;2023-04-23T02:49:55;95385.03;;;14.98;67.40
29239;BME280;16267;48.194;11.546;2023-04-23T02:52:23;95389.69;;;14.97;67.19
29239;BME280;16267;48.194;11.546;2023-04-23T02:54:49;95392.81;;;14.95;67.73
29239;BME280;16267;48.194;11.546;2023-04-23T02:57:14;95392.06;;;14.95;67.67
29239;BME280;16267;48.194;11.546;2023-04-23T02:59:41;95390.59;;;14.94;67.36
29239;BME280;16267;48.194;11.546;2023-04-23T03:02:07;95385.59;;;14.92;67.48
29239;BME280;16267;48.194;11.546;2023-04-23T03:04:33;95388.31;;;14.92;68.39
29239;BME280;16267;48.194;11.546;2023-04-23T03:06:59;95386.06;;;14.91;67.79
29239;BME280;16267;48.194;11.546;2023-04-23T03:09:25;95384.53;;;14.90;68.20
29239;BME280;16267;48.194;11.546;2023-04-23T03:11:50;95385.75;;;14.89;69.02
29239;BME280;16267;48.194;11.546;2023-04-23T03:14:16;95384.22;;;14.88;69.47
29239;BME280;16267;48.194;11.546;2023-04-23T03:16:42;95391.25;;;14.85;69.71
29239;BME280;16267;48.194;11.546;2023-04-23T03:19:08;95389.44;;;14.82;69.13
29239;BME280;16267;48.194;11.546;2023-04-23T03:21:33;95390.22;;;14.83;68.95
29239;BME280;16267;48.194;11.546;2023-04-23T03:24:00;95387.19;;;14.81;69.21
29239;BME280;16267;48.194;11.546;2023-04-23T03:26:26;95391.84;;;14.80;68.76
29239;BME280;16267;48.194;11.546;2023-04-23T03:28:52;95395.75;;;14.79;68.67
29239;BME280;16267;48.194;11.546;2023-04-23T03:31:18;95394.66;;;14.77;69.34
29239;BME280;16267;48.194;11.546;2023-04-23T03:33:44;95397.06;;;14.75;69.71
29239;BME280;16267;48.194;11.546;2023-04-23T03:36:09;95395.25;;;14.71;70.59
29239;BME280;16267;48.194;11.546;2023-04-23T03:38:35;95390.72;;;14.68;70.97
29239;BME280;16267;48.194;11.546;2023-04-23T03:41:01;95401.97;;;14.67;71.21
29239;BME280;16267;48.194;11.546;2023-04-23T03:43:26;95399.69;;;14.65;70.48
29239;BME280;16267;48.194;11.546;2023-04-23T03:45:52;95402.84;;;14.64;69.99
29239;BME280;16267;48.194;11.546;2023-04-23T03:48:18;95398.63;;;14.63;69.55
29239;BME280;16267;48.194;11.546;2023-04-23T03:50:45;95406.00;;;14.62;69.69
29239;BME280;16267;48.194;11.546;2023-04-23T03:53:10;95407.94;;;14.62;69.41
29239;BME280;16267;48.194;11.546;2023-04-23T03:55:36;95413.34;;;14.62;69.34
29239;BME280;16267;48.194;11.546;2023-04-23T03:58:02;95414.53;;;14.61;69.95
29239;BME280;16267;48.194;11.546;2023-04-23T04:00:28;95419.16;;;14.60;69.75
29239;BME280;16267;48.194;11.546;2023-04-23T04:02:54;95423.06;;;14.59;69.71
29239;BME280;16267;48.194;11.546;2023-04-23T04:05:21;95426.22;;;14.58;69.98
29239;BME280;16267;48.194;11.546;2023-04-23T04:07:47;95427.88;;;14.55;71.06
29239;BME280;16267;48.194;11.546;2023-04-23T04:10:12;95429.50;;;14.53;71.05
29239;BME280;16267;48.194;11.546;2023-04-23T04:12:38;95429.88;;;14.51;71.84
29239;BME280;16267;48.194;11.546;2023-04-23T04:15:06;95438.88;;;14.48;72.44
29239;BME280;16267;48.194;11.546;2023-04-23T04:17:32;95436.72;;;14.43;73.13
29239;BME280;16267;48.194;11.546;2023-04-23T04:19:57;95441.38;;;14.42;73.68
29239;BME280;16267;48.194;11.546;2023-04-23T04:22:23;95440.31;;;14.40;74.18
29239;BME280;16267;48.194;11.546;2023-04-23T04:24:49;95441.19;;;14.37;73.89
29239;BME280;16267;48.194;11.546;2023-04-23T04:27:16;95443.13;;;14.36;74.37
29239;BME280;16267;48.194;11.546;2023-04-23T04:29:42;95444.75;;;14.34;74.91
29239;BME280;16267;48.194;11.546;2023-04-23T04:32:09;95442.41;;;14.23;76.48
29239;BME280;16267;48.194;11.546;2023-04-23T04:34:35;95449.44;;;14.20;77.20
29239;BME280;16267;48.194;11.546;2023-04-23T04:37:02;95441.88;;;14.15;78.08
29239;BME280;16267;48.194;11.546;2023-04-23T04:39:28;95458.81;;;14.16;78.44
29239;BME280;16267;48.194;11.546;2023-04-23T04:41:54;95460.03;;;14.15;79.06
29239;BME280;16267;48.194;11.546;2023-04-23T04:44:22;95447.75;;;14.14;78.70
29239;BME280;16267;48.194;11.546;2023-04-23T04:46:47;95450.97;;;14.09;79.53
29239;BME280;16267;48.194;11.546;2023-04-23T04:49:13;95449.59;;;14.04;81.11
29239;BME280;16267;48.194;11.546;2023-04-23T04:51:40;95453.47;;;14.03;81.79
29239;BME280;16267;48.194;11.546;2023-04-23T04:54:06;95452.63;;;13.93;82.43
29239;BME280;16267;48.194;11.546;2023-04-23T04:56:33;95451.53;;;13.91;83.28
29239;BME280;16267;48.194;11.546;2023-04-23T04:59:01;95456.94;;;13.91;83.15
29239;BME280;16267;48.194;11.546;2023-04-23T05:01:27;95466.03;;;13.84;83.79
29239;BME280;16267;48.194;11.546;2023-04-23T05:03:54;95466.34;;;13.86;83.96
29239;BME280;16267;48.194;11.546;2023-04-23T05:06:21;95475.41;;;13.79;84.87
29239;BME280;16267;48.194;11.546;2023-04-23T05:08:46;95477.69;;;13.81;84.68
29239;BME280;16267;48.194;11.546;2023-04-23T05:11:17;95480.38;;;13.81;85.14
29239;BME280;16267;48.194;11.546;2023-04-23T05:13:44;95483.94;;;13.78;85.50
29239;BME280;16267;48.194;11.546;2023-04-23T05:16:11;95487.50;;;13.75;85.50
29239;BME280;16267;48.194;11.546;2023-04-23T05:18:38;95490.22;;;13.75;85.98
29239;BME280;16267;48.194;11.546;2023-04-23T05:21:04;95491.16;;;13.68;86.70
29239;BME280;16267;48.194;11.546;2023-04-23T05:23:31;95498.09;;;13.69;86.06
29239;BME280;16267;48.194;11.546;2023-04-23T05:25:57;95497.97;;;13.73;86.01
29239;BME280;16267;48.194;11.546;2023-04-23T05:28:24;95499.91;;;13.72;86.76
29239;BME280;16267;48.194;11.546;2023-04-23T05:30:50;95492.91;;;13.75;86.19
29239;BME280;16267;48.194;11.546;2023-04-23T05:33:16;95503.38;;;13.73;86.02
29239;BME280;16267;48.194;11.546;2023-04-23T05:35:42;95500.66;;;13.73;86.12
29239;BME280;16267;48.194;11.546;2023-04-23T05:38:08;95504.31;;;13.66;86.66
29239;BME280;16267;48.194;11.546;2023-04-23T05:40:35;95509.50;;;13.60;88.36
29239;BME280;16267;48.194;11.546;2023-04-23T05:43:01;95512.09;;;13.64;88.12
29239;BME280;16267;48.194;11.546;2023-04-23T05:45:27;95511.44;;;13.60;88.89
29239;BME280;16267;48.194;11.546;2023-04-23T05:47:53;95509.50;;;13.60;88.67
29239;BME280;16267;48.194;11.546;2023-04-23T05:50:20;95510.28;;;13.61;88.25
29239;BME280;16267;48.194;11.546;2023-04-23T05:52:46;95508.84;;;13.56;88.59
29239;BME280;16267;48.194;11.546;2023-04-23T05:55:12;95512.19;;;13.60;88.32
29239;BME280;16267;48.194;11.546;2023-04-23T05:57:40;95514.59;;;13.58;87.54
29239;BME280;16267;48.194;11.546;2023-04-23T06:00:07;95512.19;;;13.60;88.06
29239;BME280;16267;48.194;11.546;2023-04-23T06:02:37;95522.97;;;13.60;87.32
29239;BME280;16267;48.194;11.546;2023-04-23T06:05:04;95521.56;;;13.43;89.07
29239;BME280;16267;48.194;11.546;2023-04-23T06:07:31;95525.22;;;13.36;91.32
29239;BME280;16267;48.194;11.546;2023-04-23T06:09:57;95515.41;;;13.43;90.67
29239;BME280;16267;48.194;11.546;2023-04-23T06:12:22;95511.88;;;13.46;90.13
29239;BME280;16267;48.194;11.546;2023-04-23T06:14:48;95522.53;;;13.49;89.80
29239;BME280;16267;48.194;11.546;2023-04-23T06:17:14;95521.38;;;13.50;90.03
29239;BME280;16267;48.194;11.546;2023-04-23T06:19:40;95518.22;;;13.52;89.59
29239;BME280;16267;48.194;11.546;2023-04-23T06:22:06;95515.97;;;13.50;89.25
29239;BME280;16267;48.194;11.546;2023-04-23T06:24:32;95527.28;;;13.45;90.25
29239;BME280;16267;48.194;11.546;2023-04-23T06:26:58;95518.34;;;13.48;90.95
29239;BME280;16267;48.194;11.546;2023-04-23T06:29:24;95519.41;;;13.51;89.44
29239;BME280;16267;48.194;11.546;2023-04-23T06:31:50;95515.53;;;13.52;89.04
29239;BME280;16267;48.194;11.546;2023-04-23T06:34:16;95515.97;;;13.50;89.69
29239;BME280;16267;48.194;11.546;2023-04-23T06:36:42;95520.63;;;13.50;91.22
29239;BME280;16267;48.194;11.546;2023-04-23T06:39:08;95522.22;;;13.47;91.02
29239;BME280;16267;48.194;11.546;2023-04-23T06:41:35;95533.44;;;13.46;91.79
29239;BME280;16267;48.194;11.546;2023-04-23T06:44:01;95533.00;;;13.47;91.49
29239;BME280;16267;48.194;11.546;2023-04-23T06:46:26;95534.50;;;13.48;90.18
29239;BME280;16267;48.194;11.546;2023-04-23T06:48:53;95534.63;;;13.45;91.29
29239;BME280;16267;48.194;11.546;2023-04-23T06:51:19;95520.69;;;13.46;90.88
29239;BME280;16267;48.194;11.546;2023-04-23T06:53:46;95519.53;;;13.47;90.21
29239;BME280;16267;48.194;11.546;2023-04-23T06:56:12;95517.16;;;13.49;89.10
29239;BME280;16267;48.194;11.546;2023-04-23T06:58:37;95506.69;;;13.51;88.63
29239;BME280;16267;48.194;11.546;2023-04-23T07:01:04;95507.78;;;13.54;87.56
29239;BME280;16267;48.194;11.546;2023-04-23T07:03:32;95516.19;;;13.56;89.28
29239;BME280;16267;48.194;11.546;2023-04-23T07:05:58;95506.56;;;13.55;90.44
29239;BME280;16267;48.194;11.546;2023-04-23T07:08:24;95508.09;;;13.56;90.27
29239;BME280;16267;48.194;11.546;2023-04-23T07:10:50;95511.13;;;13.58;90.48
29239;BME280;16267;48.194;11.546;2023-04-23T07:13:17;95498.41;;;13.58;90.87
29239;BME280;16267;48.194;11.546;2023-04-23T07:15:43;95499.91;;;13.59;91.00
29239;BME280;16267;48.194;11.546;2023-04-23T07:18:09;95503.25;;;13.64;90.69
29239;BME280;16267;48.194;11.546;2023-04-23T07:20:35;95503.56;;;13.66;91.34
29239;BME280;16267;48.194;11.546;2023-04-23T07:23:01;95507.34;;;13.68;90.63
29239;BME280;16267;48.194;11.546;2023-04-23T07:25:29;95501.88;;;13.72;89.60
29239;BME280;16267;48.194;11.546;2023-04-23T07:27:56;95504.13;;;13.73;90.08
29239;BME280;16267;48.194;11.546;2023-04-23T07:30:25;95501.00;;;13.75;90.39
29239;BME280;16267;48.194;11.546;2023-04-23T07:32:53;95505.94;;;13.76;90.07
29239;BME280;16267;48.194;11.546;2023-04-23T07:35:20;95505.63;;;13.74;91.36
29239;BME280;16267;48.194;11.546;2023-04-23T07:37:46;95505.31;;;13.72;92.45
29239;BME280;16267;48.194;11.546;2023-04-23T07:40:11;95511.44;;;13.73;92.54
29239;BME280;16267;48.194;11.546;2023-04-23T07:42:38;95505.63;;;13.74;92.70
29239;BME280;16267;48.194;11.546;2023-04-23T07:45:05;95512.09;;;13.77;92.16
29239;BME280;16267;48.194;11.546;2023-04-23T07:47:31;95508.75;;;13.73;91.92
29239;BME280;16267;48.194;11.546;2023-04-23T07:49:56;95511.25;;;13.67;91.60
29239;BME280;16267;48.194;11.546;2023-04-23T07:52:22;95510.38;;;13.70;92.50
29239;BME280;16267;48.194;11.546;2023-04-23T07:54:48;95508.09;;;13.69;91.85
29239;BME280;16267;48.194;11.546;2023-04-23T07:57:14;95510.56;;;13.63;92.14
29239;BME280;16267;48.194;11.546;2023-04-23T08:02:08;95516.41;;;13.61;91.61
29239;BME280;16267;48.194;11.546;2023-04-23T08:04:34;95509.06;;;13.62;91.72
29239;BME280;16267;48.194;11.546;2023-04-23T08:07:00;95511.34;;;13.64;91.63
29239;BME280;16267;48.194;11.546;2023-04-23T08:09:25;95517.50;;;13.64;92.78
29239;BME280;16267;48.194;11.546;2023-04-23T08:11:51;95514.06;;;13.64;92.30
29239;BME280;16267;48.194;11.546;2023-04-23T08:14:17;95508.53;;;13.67;92.15
29239;BME280;16267;48.194;11.546;2023-04-23T08:16:43;95499.38;;;13.65;92.74
29239;BME280;16267;48.194;11.546;2023-04-23T08:19:11;95505.84;;;13.67;92.48
29239;BME280;16267;48.194;11.546;2023-04-23T08:21:37;95499.25;;;13.68;91.88
29239;BME280;16267;48.194;11.546;2023-04-23T08:24:03;95513.06;;;13.70;92.25
29239;BME280;16267;48.194;11.546;2023-04-23T08:26:30;95507.25;;;13.72;91.00
29239;BME280;16267;48.194;11.546;2023-04-23T08:28:56;95506.38;;;13.75;89.71
29239;BME280;16267;48.194;11.546;2023-04-23T08:31:22;95493.53;;;13.79;90.63
29239;BME280;16267;48.194;11.546;2023-04-23T08:33:47;95489.97;;;13.82;91.16
29239;BME280;16267;48.194;11.546;2023-04-23T08:36:13;95489.75;;;13.89;91.57
29239;BME280;16267;48.194;11.546;2023-04-23T08:38:40;95487.91;;;13.99;90.28
29239;BME280;16267;48.194;11.546;2023-04-23T08:41:10;95482.91;;;14.10;90.88
29239;BME280;16267;48.194;11.546;2023-04-23T08:46:36;95470.88;;;14.37;90.93
29239;BME280;16267;48.194;11.546;2023-04-23T08:49:06;95475.59;;;14.45;89.28
29239;BME280;16267;48.194;11.546;2023-04-23T08:51:37;95478.28;;;14.45;88.16
29239;BME280;16267;48.194;11.546;2023-04-23T08:54:08;95480.66;;;14.56;88.48
29239;BME280;16267;48.194;11.546;2023-04-23T08:56:40;95485.38;;;14.65;87.17
29239;BME280;16267;48.194;11.546;2023-04-23T08:59:06;95480.31;;;14.67;87.12
29239;BME280;16267;48.194;11.546;2023-04-23T09:01:32;95475.66;;;14.67;87.74
29239;BME280;16267;48.194;11.546;2023-04-23T09:03:59;95475.66;;;14.67;87.41
29239;BME280;16267;48.194;11.546;2023-04-23T09:06:25;95473.00;;;14.77;88.21
29239;BME280;16267;48.194;11.546;2023-04-23T09:08:51;95466.06;;;14.88;88.40
29239;BME280;16267;48.194;11.546;2023-04-23T09:11:18;95475.72;;;14.99;87.92
29239;BME280;16267;48.194;11.546;2023-04-23T09:13:45;95463.25;;;15.01;87.26
29239;BME280;16267;48.194;11.546;2023-04-23T09:16:10;95471.69;;;15.03;85.15
29239;BME280;16267;48.194;11.546;2023-04-23T09:18:38;95463.63;;;15.12;85.18
29239;BME280;16267;48.194;11.546;2023-04-23T09:21:11;95460.22;;;15.21;85.17
29239;BME280;16267;48.194;11.546;2023-04-23T09:23:38;95458.16;;;15.25;83.15
29239;BME280;16267;48.194;11.546;2023-04-23T09:26:06;95460.47;;;15.36;83.69
29239;BME280;16267;48.194;11.546;2023-04-23T09:28:36;95452.03;;;15.34;82.56
29239;BME280;16267;48.194;11.546;2023-04-23T09:31:09;95456.41;;;15.40;81.65
29239;BME280;16267;48.194;11.546;2023-04-23T09:33:35;95450.72;;;15.38;82.13
29239;BME280;16267;48.194;11.546;2023-04-23T09:36:27;95451.00;;;15.40;80.82
29239;BME280;16267;48.194;11.546;2023-04-23T09:39:00;95451.16;;;15.46;79.86
29239;BME280;16267;48.194;11.546;2023-04-23T09:41:27;95450.00;;;15.56;81.34
29239;BME280;16267;48.194;11.546;2023-04-23T09:44:02;95447.66;;;15.68;80.03
29239;BME280;16267;48.194;11.546;2023-04-23T09:46:41;95436.13;;;15.76;79.24
29239;BME280;16267;48.194;11.546;2023-04-23T09:49:09;95434.78;;;15.81;79.18
29239;BME280;16267;48.194;11.546;2023-04-23T09:51:36;95432.88;;;15.91;79.06
29239;BME280;16267;48.194;11.546;2023-04-23T09:54:03;95422.06;;;16.00;78.56
29239;BME280;16267;48.194;11.546;2023-04-23T09:56:31;95430.63;;;15.98;74.89
29239;BME280;16267;48.194;11.546;2023-04-23T09:58:57;95428.06;;;16.04;74.87
29239;BME280;16267;48.194;11.546;2023-04-23T10:01:35;95423.13;;;16.02;74.34
29239;BME280;16267;48.194;11.546;2023-04-23T10:04:01;95420.56;;;16.08;73.60
29239;BME280;16267;48.194;11.546;2023-04-23T10:06:29;95415.47;;;16.10;73.34
29239;BME280;16267;48.194;11.546;2023-04-23T10:08:56;95419.66;;;16.11;73.67
29239;BME280;16267;48.194;11.546;2023-04-23T10:12:15;95417.25;;;16.13;73.72
29239;BME280;16267;48.194;11.546;2023-04-23T10:18:17;95408.09;;;16.11;73.82
29239;BME280;16267;48.194;11.546;2023-04-23T10:24:04;95402.06;;;16.25;74.14
29239;BME280;16267;48.194;11.546;2023-04-23T10:29:58;95408.84;;;16.39;72.23
29239;BME280;16267;48.194;11.546;2023-04-23T10:32:26;95407.03;;;16.45;72.49
29239;BME280;16267;48.194;11.546;2023-04-23T10:34:53;95404.47;;;16.41;70.18
29239;BME280;16267;48.194;11.546;2023-04-23T10:37:19;95403.09;;;16.46;70.76
29239;BME280;16267;48.194;11.546;2023-04-23T10:39:52;95399.38;;;16.43;70.24
29239;BME280;16267;48.194;11.546;2023-04-23T10:42:21;95397.84;;;16.51;71.90
29239;BME280;16267;48.194;11.546;2023-04-23T10:44:47;95400.25;;;16.59;71.27
29239;BME280;16267;48.194;11.546;2023-04-23T10:47:16;95390.31;;;16.65;70.91
29239;BME280;16267;48.194;11.546;2023-04-23T10:49:43;95387.31;;;16.63;68.04
29239;BME280;16267;48.194;11.546;2023-04-23T10:52:13;95381.44;;;16.64;70.13
29239;BME280;16267;48.194;11.546;2023-04-23T10:54:42;95377.94;;;16.73;70.42
29239;BME280;16267;48.194;11.546;2023-04-23T10:57:10;95373.91;;;16.78;69.59
29239;BME280;16267;48.194;11.546;2023-04-23T10:59:52;95374.50;;;16.82;66.97
29239;BME280;16267;48.194;11.546;2023-04-23T11:02:19;95372.19;;;16.99;68.12
29239;BME280;16267;48.194;11.546;2023-04-23T11:04:52;95356.34;;;17.06;66.47
29239;BME280;16267;48.194;11.546;2023-04-23T11:07:18;95354.91;;;17.29;69.60
29239;BME280;16267;48.194;11.546;2023-04-23T11:09:48;95349.97;;;17.52;69.95
29239;BME280;16267;48.194;11.546;2023-04-23T11:14:51;95340.34;;;17.75;63.25
29239;BME280;16267;48.194;11.546;2023-04-23T11:17:21;95342.38;;;17.89;64.78
29239;BME280;16267;48.194;11.546;2023-04-23T11:22:42;95323.53;;;18.24;62.77
29239;BME280;16267;48.194;11.546;2023-04-23T11:25:14;95319.25;;;18.33;64.01
29239;BME280;16267;48.194;11.546;2023-04-23T11:27:44;95316.16;;;18.40;63.05
29239;BME280;16267;48.194;11.546;2023-04-23T11:30:19;95323.75;;;18.36;59.73
29239;BME280;16267;48.194;11.546;2023-04-23T11:32:49;95316.91;;;18.40;61.41
29239;BME280;16267;48.194;11.546;2023-04-23T11:35:20;95315.97;;;18.43;61.83
29239;BME280;16267;48.194;11.546;2023-04-23T11:37:47;95324.97;;;18.35;59.48
29239;BME280;16267;48.194;11.546;2023-04-23T11:40:18;95316.72;;;18.44;61.34
29239;BME280;16267;48.194;11.546;2023-04-23T11:42:49;95302.38;;;18.58;60.80
29239;BME280;16267;48.194;11.546;2023-04-23T11:45:25;95305.56;;;18.71;62.69
29239;BME280;16267;48.194;11.546;2023-04-23T11:47:56;95306.16;;;18.90;62.67
29239;BME280;16267;48.194;11.546;2023-04-23T11:50:30;95300.47;;;19.09;62.91
29239;BME280;16267;48.194;11.546;2023-04-23T11:53:04;95293.50;;;19.23;60.87
29239;BME280;16267;48.194;11.546;2023-04-23T11:55:32;95289.75;;;19.20;57.42
29239;BME280;16267;48.194;11.546;2023-04-23T11:58:02;95286.28;;;19.20;55.43
29239;BME280;16267;48.194;11.546;2023-04-23T12:00:28;95286.53;;;19.01;52.25
29239;BME280;16267;48.194;11.546;2023-04-23T12:02:57;95278.63;;;19.03;52.78
29239;BME280;16267;48.194;11.546;2023-04-23T12:05:40;95273.84;;;19.13;53.94
29239;BME280;16267;48.194;11.546;2023-04-23T12:11:02;95258.47;;;19.10;54.21
29239;BME280;16267;48.194;11.546;2023-04-23T12:13:31;95258.19;;;19.08;53.41
29239;BME280;16267;48.194;11.546;2023-04-23T12:16:04;95253.66;;;18.69;52.63
29239;BME280;16267;48.194;11.546;2023-04-23T12:18:43;95251.78;;;18.76;53.66
29239;BME280;16267;48.194;11.546;2023-04-23T12:21:13;95242.19;;;18.95;55.67
29239;BME280;16267;48.194;11.546;2023-04-23T12:23:41;95248.25;;;19.05;55.24
29239;BME280;16267;48.194;11.546;2023-04-23T12:26:15;95247.19;;;19.17;55.48
29239;BME280;16267;48.194;11.546;2023-04-23T12:28:55;95240.41;;;19.27;55.26
29239;BME280;16267;48.194;11.546;2023-04-23T12:31:28;95247.88;;;19.32;53.30
29239;BME280;16267;48.194;11.546;2023-04-23T12:34:01;95237.47;;;19.31;53.31
29239;BME280;16267;48.194;11.546;2023-04-23T12:36:28;95233.59;;;19.37;53.41
29239;BME280;16267;48.194;11.546;2023-04-23T12:41:55;95217.66;;;19.51;52.54
29239;BME280;16267;48.194;11.546;2023-04-23T12:44:22;95223.66;;;19.55;53.32
29239;BME280;16267;48.194;11.546;2023-04-23T12:49:20;95210.28;;;19.51;53.36
29239;BME280;16267;48.194;11.546;2023-04-23T12:51:46;95201.94;;;19.60;53.56
29239;BME280;16267;48.194;11.546;2023-04-23T12:54:12;95203.53;;;19.67;52.99
29239;BME280;16267;48.194;11.546;2023-04-23T12:56:38;95194.91;;;19.69;52.37
29239;BME280;16267;48.194;11.546;2023-04-23T12:59:04;95205.03;;;19.68;51.65
29239;BME280;16267;48.194;11.546;2023-04-23T13:01:31;95196.28;;;19.64;52.10
29239;BME280;16267;48.194;11.546;2023-04-23T13:03:57;95201.69;;;19.58;51.20
29239;BME280;16267;48.194;11.546;2023-04-23T13:06:23;95191.34;;;19.42;50.91
29239;BME280;16267;48.194;11.546;2023-04-23T13:08:51;95194.28;;;19.38;51.18
29239;BME280;16267;48.194;11.546;2023-04-23T13:11:16;95180.16;;;19.34;51.33
29239;BME280;16267;48.194;11.546;2023-04-23T13:13:42;95182.66;;;19.38;51.64
29239;BME280;16267;48.194;11.546;2023-04-23T13:16:08;95172.50;;;19.38;51.33
29239;BME280;16267;48.194;11.546;2023-04-23T13:18:35;95175.31;;;19.44;52.38
29239;BME280;16267;48.194;11.546;2023-04-23T13:21:01;95166.34;;;19.38;52.33